NCAR-RAP Real-Time Weather Data

Output produced by METARs form (14 October 2019  23:02 UTC)
found at http://weather.rap.ucar.edu/surface/
 
KCMH 142251Z 29008KT 10SM CLR 14/01 A3007 RMK AO2 SLP183 T01440006 $
KCMH 142151Z 28009KT 10SM CLR 17/01 A3006 RMK AO2 SLP177 T01720006 $
KCMH 142051Z 27005KT 10SM CLR 18/01 A3005 RMK AO2 SLP175 T01780006 55003 $
KCMH 141951Z 26011KT 10SM CLR 18/01 A3005 RMK AO2 SLP175 T01780006 $
KCMH 141851Z 25011KT 10SM CLR 17/00 A3005 RMK AO2 SLP174 T01720000 $
KCMH 141751Z 28013KT 10SM CLR 17/00 A3006 RMK AO2 SLP178 T01720000 10172 20061 58009 $
KCMH 141651Z 25011KT 10SM FEW060 17/00 A3007 RMK AO2 SLP181 T01670000 $
KCMH 141551Z 25009KT 230V290 10SM CLR 16/01 A3008 RMK AO2 SLP184 T01560006 $
KCMH 141451Z 28007KT 10SM CLR 13/01 A3008 RMK AO2 SLP187 T01330011 51019 $
KCMH 141351Z 00000KT 10SM CLR 11/02 A3007 RMK AO2 SLP184 T01060022 $
KCMH 141251Z 00000KT 10SM CLR 08/03 A3004 RMK AO2 SLP174 T00780033 $
KCMH 141151Z 00000KT 10SM CLR 07/02 A3003 RMK AO2 SLP168 T00720022 10094 20056 51020 $
KCMH 141051Z 29005KT 10SM CLR 07/02 A3001 RMK AO2 SLP163 T00670022 $
KCMH 140951Z 00000KT 10SM CLR 08/03 A2999 RMK AO2 SLP155 T00780028 $
KCMH 140851Z 15003KT 10SM CLR 07/03 A2996 RMK AO2 SLP146 T00670028 53006 $
KCMH 140751Z 12003KT 10SM CLR 06/02 A2995 RMK AO2 SLP141 T00560022 $
KCMH 140651Z 22003KT 10SM CLR 09/02 A2995 RMK AO2 SLP143 T00890022 $
KCMH 140551Z 17004KT 10SM CLR 09/03 A2994 RMK AO2 SLP140 T00890028 10161 20089 51005 $
KCMH 140451Z 19004KT 10SM CLR 09/02 A2994 RMK AO2 SLP138 T00940022 402060028 $
KCMH 140351Z 18003KT 10SM FEW150 11/02 A2994 RMK AO2 SLP137 T01110022 $
KCMH 140251Z 20004KT 10SM FEW160 12/02 A2993 RMK AO2 SLP135 T01170022 51007 $
KCMH 140151Z 17006KT 10SM FEW160 13/01 A2992 RMK AO2 SLP133 T01280011 $
KCMH 140051Z 19005KT 10SM CLR 14/00 A2992 RMK AO2 SLP133 T01390000 $
KCMH 132351Z 20007KT 10SM CLR 16/M02 A2991 RMK AO2 SLP129 T01561017 10206 20156 53006 $
KCMH 132251Z 20007KT 10SM CLR 18/M02 A2989 RMK AO2 SLP124 T01781022 $
KCMH 132151Z 20012KT 10SM CLR 19/M03 A2990 RMK AO2 SLP125 T01941033 $
KCMH 132051Z 22013G19KT 10SM FEW250 20/M04 A2989 RMK AO2 SLP122 T02001039 56020 $
KCMH 131951Z 19014KT 10SM FEW250 20/M03 A2990 RMK AO2 SLP125 T02001028 $
KCMH 131851Z 19012G19KT 10SM FEW250 19/M03 A2992 RMK AO2 SLP131 T01891028 $
KCMH 131751Z 21011G17KT 10SM FEW250 17/00 A2995 RMK AO2 SLP143 T01670000 10178 20033 58025 $
KCMH 131651Z 21011G20KT 10SM FEW250 16/01 A2999 RMK AO2 SLP155 T01560006 $
KCMH 131551Z 20010KT 10SM SCT250 14/01 A3001 RMK AO2 SLP163 T01390006 $
KCMH 131451Z 18006KT 10SM SCT250 12/03 A3003 RMK AO2 SLP169 T01170028 58006 $
KCMH 131351Z 19007KT 10SM SCT250 08/03 A3004 RMK AO2 SLP176 T00780033 $
KCMH 131251Z 16005KT 10SM SCT250 05/02 A3005 RMK AO2 SLP179 T00500017 $
KCMH 131151Z 15003KT 10SM FEW250 03/01 A3005 RMK AO2 SLP178 T00330006 10056 20028 55001 $
KCMH 131051Z VRB04KT 10SM CLR 03/00 A3004 RMK AO2 SLP175 T00330000 $
KCMH 130951Z 00000KT 10SM CLR 03/00 A3004 RMK AO2 SLP176 T00330000 $
KCMH 130851Z 00000KT 10SM CLR 04/M01 A3005 RMK AO2 SLP178 T00441006 55004 $
KCMH 130751Z 00000KT 10SM CLR 05/M01 A3004 RMK AO2 SLP177 T00501006 $
KCMH 130651Z 15003KT 10SM CLR 05/00 A3005 RMK AO2 SLP177 T00500000 $
KCMH 130551Z 17003KT 10SM CLR 06/M01 A3006 RMK AO2 SLP182 T00561006 10100 20056 55008 $
KCMH 130451Z 15007KT 10SM CLR 07/M01 A3006 RMK AO2 SLP180 T00671006 401280033 $
KCMH 130351Z 15006KT 10SM CLR 07/M01 A3007 RMK AO2 SLP186 T00671006 $
KCMH 130251Z 00000KT 10SM CLR 07/M01 A3009 RMK AO2 SLP191 T00721011 56002 $
KCMH 130151Z 17005KT 10SM CLR 08/M02 A3009 RMK AO2 SLP191 T00831017 $
KCMH 130051Z 18004KT 10SM CLR 09/M02 A3008 RMK AO2 SLP191 T00891022 $
KCMH 122351Z 19005KT 10SM CLR 09/M03 A3009 RMK AO2 SLP193 T00941033 10128 20094 53003 $